Time;durP1;ratioP1;P1;durP2;ratioP2;P2;SDS_P1;SDS_P2;PMS_P1;PMS_P2;Temp;Humidity;BMP_temperature;BMP_pressure;BME280_temperature;BME280_humidity;BME280_pressure;Samples;Min_cycle;Max_cycle;Signal;HPM_P1;HPM_P2
2021/08/31 00:00:17;;;;;;;;;18.50;16.50;;;;;;;;5078077;28;46916;-86
2021/08/31 00:02:42;;;;;;;;;18.75;15.00;;;;;;;;5078142;28;47022;-85
2021/08/31 00:05:09;;;;;;;;;13.50;13.50;;;;;;;;5078078;28;47309;-85
2021/08/31 00:07:35;;;;;;;;;17.50;12.75;;;;;;;;5077847;28;47062;-86
2021/08/31 00:10:00;;;;;;;;;17.75;16.00;;;;;;;;5078006;28;47014;-86
2021/08/31 00:12:25;;;;;;;;;14.50;12.75;;;;;;;;5077997;28;47054;-85
2021/08/31 00:14:51;;;;;;;;;17.00;16.50;;;;;;;;5078043;28;47213;-86
2021/08/31 00:17:17;;;;;;;;;16.75;14.50;;;;;;;;5077430;28;46962;-85
2021/08/31 00:19:46;;;;;;;;;15.25;14.00;;;;;;;;5077997;28;47208;-85
2021/08/31 00:22:11;;;;;;;;;16.00;15.75;;;;;;;;5077837;28;46950;-85
2021/08/31 00:24:36;;;;;;;;;16.75;15.00;;;;;;;;5077766;28;48116;-85
2021/08/31 00:27:02;;;;;;;;;10.50;10.50;;;;;;;;5065512;28;46971;-85
2021/08/31 00:29:28;;;;;;;;;15.25;12.75;;;;;;;;5077638;28;47121;-85
2021/08/31 00:31:54;;;;;;;;;14.50;13.25;;;;;;;;5077956;28;46977;-84
2021/08/31 00:34:19;;;;;;;;;15.50;14.00;;;;;;;;5076530;28;47157;-85
2021/08/31 00:36:44;;;;;;;;;15.50;15.00;;;;;;;;5077717;28;46993;-84
2021/08/31 00:39:10;;;;;;;;;15.00;12.75;;;;;;;;5078371;28;47018;-85
2021/08/31 00:41:36;;;;;;;;;9.75;9.50;;;;;;;;5081123;28;47086;-85
2021/08/31 00:44:02;;;;;;;;;13.50;12.50;;;;;;;;5080677;28;47014;-85
2021/08/31 00:46:27;;;;;;;;;11.75;9.50;;;;;;;;5062799;28;48523;-85
2021/08/31 00:48:52;;;;;;;;;17.75;15.25;;;;;;;;5081003;28;47039;-85
2021/08/31 00:51:20;;;;;;;;;6.75;6.75;;;;;;;;5081095;28;46993;-86
2021/08/31 00:53:46;;;;;;;;;8.25;7.00;;;;;;;;5062814;28;47432;-86
2021/08/31 00:56:11;;;;;;;;;18.00;15.50;;;;;;;;5078953;28;46857;-86
2021/08/31 00:58:40;;;;;;;;;18.00;15.75;;;;;;;;5069093;28;46835;-86
2021/08/31 01:01:05;;;;;;;;;12.25;10.50;;;;;;;;5080385;28;48177;-85
2021/08/31 01:03:31;;;;;;;;;11.75;9.50;;;;;;;;5081200;28;46955;-84
2021/08/31 01:05:57;;;;;;;;;18.25;13.00;;;;;;;;5080486;28;47698;-85
2021/08/31 01:08:22;;;;;;;;;16.75;14.25;;;;;;;;5080706;28;47110;-85
2021/08/31 01:10:47;;;;;;;;;14.00;13.00;;;;;;;;5062536;28;47144;-85
2021/08/31 01:13:14;;;;;;;;;11.75;9.75;;;;;;;;5080374;28;46917;-84
2021/08/31 01:15:40;;;;;;;;;12.25;9.25;;;;;;;;5080351;28;47026;-84
2021/08/31 01:18:16;;;;;;;;;10.50;10.00;;;;;;;;5080589;28;46852;-84
2021/08/31 01:20:43;;;;;;;;;13.00;12.50;;;;;;;;5080462;28;46954;-84
2021/08/31 01:23:09;;;;;;;;;15.75;12.25;;;;;;;;5080629;28;47210;-84
2021/08/31 01:25:34;;;;;;;;;11.75;10.75;;;;;;;;5080376;28;47045;-84
2021/08/31 01:27:59;;;;;;;;;10.00;6.75;;;;;;;;5079951;28;47103;-85
2021/08/31 01:30:25;;;;;;;;;17.75;15.25;;;;;;;;5080482;28;47015;-85
2021/08/31 01:32:50;;;;;;;;;9.75;8.75;;;;;;;;5079343;28;47172;-86
2021/08/31 01:35:15;;;;;;;;;15.25;10.25;;;;;;;;5079675;28;46986;-86
2021/08/31 01:37:41;;;;;;;;;10.50;9.50;;;;;;;;5062055;28;47922;-86
2021/08/31 01:40:06;;;;;;;;;9.00;7.25;;;;;;;;5080394;28;47011;-85
2021/08/31 01:42:31;;;;;;;;;10.50;9.50;;;;;;;;5080394;28;47315;-86
2021/08/31 01:44:57;;;;;;;;;9.00;8.25;;;;;;;;5077987;28;46931;-85
2021/08/31 01:47:22;;;;;;;;;9.50;9.50;;;;;;;;5080229;28;47051;-85
2021/08/31 01:49:47;;;;;;;;;12.00;12.00;;;;;;;;5079397;28;47296;-85
2021/08/31 01:52:13;;;;;;;;;12.50;9.75;;;;;;;;5080554;27;46966;-85
2021/08/31 01:54:38;;;;;;;;;10.25;8.50;;;;;;;;5082964;27;47789;-85
2021/08/31 01:57:03;;;;;;;;;10.50;8.50;;;;;;;;5077895;28;46905;-86
2021/08/31 01:59:29;;;;;;;;;11.00;8.75;;;;;;;;5079687;28;47363;-86
2021/08/31 02:01:54;;;;;;;;;7.75;7.75;;;;;;;;5079923;28;46861;-86
2021/08/31 02:04:19;;;;;;;;;9.25;7.00;;;;;;;;5079818;28;46844;-86
2021/08/31 02:06:45;;;;;;;;;6.75;6.75;;;;;;;;5079265;28;46965;-87
2021/08/31 02:09:10;;;;;;;;;9.50;8.25;;;;;;;;5080398;28;46849;-86
2021/08/31 02:11:35;;;;;;;;;7.75;7.75;;;;;;;;5063961;28;47305;-86
2021/08/31 02:14:01;;;;;;;;;8.25;8.00;;;;;;;;5079737;28;46853;-86
2021/08/31 02:16:26;;;;;;;;;6.75;6.75;;;;;;;;5079243;28;47123;-86
2021/08/31 02:18:51;;;;;;;;;7.00;7.00;;;;;;;;5079654;28;47351;-86
2021/08/31 02:21:17;;;;;;;;;8.75;8.25;;;;;;;;5079539;28;46839;-86
2021/08/31 02:23:42;;;;;;;;;10.00;8.00;;;;;;;;5079753;28;47789;-86
2021/08/31 02:26:08;;;;;;;;;10.25;9.00;;;;;;;;5079187;28;46902;-85
2021/08/31 02:28:33;;;;;;;;;7.75;7.00;;;;;;;;5077257;28;47000;-85
2021/08/31 02:30:58;;;;;;;;;7.00;7.00;;;;;;;;5078427;28;46996;-85
2021/08/31 02:33:24;;;;;;;;;8.50;8.00;;;;;;;;5078180;27;47705;-87
2021/08/31 02:35:49;;;;;;;;;6.75;6.75;;;;;;;;5066785;28;47049;-85
2021/08/31 02:38:14;;;;;;;;;10.75;10.75;;;;;;;;5079072;28;46950;-84
2021/08/31 02:40:40;;;;;;;;;4.75;3.00;;;;;;;;5061334;28;47125;-84
2021/08/31 02:43:05;;;;;;;;;7.00;6.00;;;;;;;;5078648;28;47166;-83
2021/08/31 02:45:30;;;;;;;;;11.00;8.75;;;;;;;;5061147;28;47046;-83
2021/08/31 02:47:56;;;;;;;;;7.75;7.00;;;;;;;;5079392;28;46939;-83
2021/08/31 02:50:21;;;;;;;;;8.75;8.00;;;;;;;;5079523;28;46946;-83
2021/08/31 02:52:48;;;;;;;;;11.25;10.00;;;;;;;;5078980;28;47806;-83
2021/08/31 02:55:14;;;;;;;;;10.00;8.25;;;;;;;;5078798;28;47170;-83
2021/08/31 02:57:39;;;;;;;;;11.75;7.25;;;;;;;;5078677;28;46854;-83
2021/08/31 03:00:05;;;;;;;;;4.50;4.50;;;;;;;;5079241;28;46903;-83
2021/08/31 03:02:30;;;;;;;;;10.00;8.50;;;;;;;;5060442;28;48714;-83
2021/08/31 03:04:56;;;;;;;;;6.75;6.00;;;;;;;;5078748;28;46789;-83
2021/08/31 03:07:21;;;;;;;;;8.50;8.25;;;;;;;;5078623;28;46853;-83
2021/08/31 03:09:46;;;;;;;;;13.25;8.00;;;;;;;;5079090;28;47103;-83
2021/08/31 03:12:12;;;;;;;;;10.50;9.25;;;;;;;;5076769;28;46908;-82
2021/08/31 03:14:37;;;;;;;;;11.00;9.00;;;;;;;;5081607;27;47897;-83
2021/08/31 03:17:03;;;;;;;;;8.25;8.00;;;;;;;;5081932;27;47023;-83
2021/08/31 03:19:28;;;;;;;;;8.00;8.00;;;;;;;;5078996;28;47015;-83
2021/08/31 03:21:58;;;;;;;;;13.00;12.25;;;;;;;;5077737;28;46989;-83
2021/08/31 03:24:24;;;;;;;;;8.00;8.00;;;;;;;;5078934;28;46952;-83
2021/08/31 03:26:50;;;;;;;;;9.50;8.25;;;;;;;;5049951;28;47071;-82
2021/08/31 03:29:15;;;;;;;;;13.25;9.25;;;;;;;;5084470;27;46808;-82
2021/08/31 03:31:40;;;;;;;;;13.50;12.00;;;;;;;;5081837;27;47693;-83
2021/08/31 03:34:06;;;;;;;;;8.25;6.50;;;;;;;;5077432;28;46870;-82
2021/08/31 03:36:31;;;;;;;;;11.75;9.00;;;;;;;;5078391;28;47080;-82
2021/08/31 03:38:57;;;;;;;;;6.25;6.25;;;;;;;;5076964;28;46782;-83
2021/08/31 03:41:22;;;;;;;;;7.75;7.25;;;;;;;;5078105;28;47122;-83
2021/08/31 03:43:48;;;;;;;;;11.25;8.75;;;;;;;;5078218;28;46849;-83
2021/08/31 03:46:13;;;;;;;;;10.25;8.75;;;;;;;;5078137;28;46880;-83
2021/08/31 03:48:38;;;;;;;;;11.75;10.25;;;;;;;;5078780;28;47248;-83
2021/08/31 03:51:04;;;;;;;;;12.75;7.75;;;;;;;;5077997;28;47097;-83
2021/08/31 03:53:29;;;;;;;;;11.00;10.25;;;;;;;;5078497;28;47090;-84
2021/08/31 03:55:54;;;;;;;;;7.75;7.00;;;;;;;;5078390;28;46909;-83
2021/08/31 03:58:20;;;;;;;;;16.00;12.50;;;;;;;;5077996;28;46971;-83
2021/08/31 04:00:45;;;;;;;;;15.25;12.00;;;;;;;;5059381;28;47084;-83
2021/08/31 04:03:10;;;;;;;;;16.75;12.00;;;;;;;;5059903;28;46998;-83
2021/08/31 04:05:36;;;;;;;;;11.75;9.25;;;;;;;;5078088;28;47040;-83
2021/08/31 04:08:01;;;;;;;;;12.75;9.00;;;;;;;;5059884;28;47114;-83
2021/08/31 04:10:26;;;;;;;;;14.50;12.50;;;;;;;;5077618;28;47095;-83
2021/08/31 04:12:52;;;;;;;;;12.75;11.50;;;;;;;;5077613;28;46967;-83
2021/08/31 04:15:17;;;;;;;;;11.00;9.25;;;;;;;;5080358;28;47058;-83
2021/08/31 04:17:42;;;;;;;;;14.00;12.50;;;;;;;;5081758;28;46794;-83
2021/08/31 04:20:08;;;;;;;;;16.25;13.25;;;;;;;;5081330;28;46941;-84
2021/08/31 04:22:33;;;;;;;;;11.00;10.75;;;;;;;;5063081;28;46918;-83
2021/08/31 04:24:59;;;;;;;;;8.25;8.25;;;;;;;;5081136;28;47396;-84
2021/08/31 04:27:25;;;;;;;;;9.50;9.50;;;;;;;;5053308;28;46890;-84
2021/08/31 04:29:50;;;;;;;;;11.00;10.25;;;;;;;;5062566;28;49567;-84
2021/08/31 04:32:15;;;;;;;;;11.00;9.50;;;;;;;;5081526;28;46746;-84
2021/08/31 04:34:41;;;;;;;;;14.75;11.75;;;;;;;;5080055;27;46796;-84
2021/08/31 04:37:06;;;;;;;;;15.75;12.50;;;;;;;;5063218;28;46928;-83
2021/08/31 04:39:31;;;;;;;;;11.50;8.50;;;;;;;;5080819;28;47054;-84
2021/08/31 04:42:02;;;;;;;;;10.00;10.00;;;;;;;;5081229;28;46870;-82
2021/08/31 04:44:28;;;;;;;;;14.75;14.00;;;;;;;;5080881;28;46946;-85
2021/08/31 04:46:53;;;;;;;;;14.50;14.50;;;;;;;;5081501;28;46975;-85
2021/08/31 04:49:19;;;;;;;;;12.25;11.50;;;;;;;;5081071;28;47905;-86
2021/08/31 04:51:44;;;;;;;;;20.75;17.75;;;;;;;;5080734;28;46789;-85
2021/08/31 04:54:09;;;;;;;;;15.50;12.00;;;;;;;;5080914;28;46905;-86
2021/08/31 04:56:34;;;;;;;;;16.00;14.50;;;;;;;;5081211;28;47041;-86
2021/08/31 04:59:00;;;;;;;;;19.75;13.00;;;;;;;;5080356;28;47855;-85
2021/08/31 05:01:25;;;;;;;;;17.00;13.00;;;;;;;;5080940;28;46916;-85
2021/08/31 05:03:50;;;;;;;;;21.75;16.75;;;;;;;;5080565;28;46837;-85
2021/08/31 05:06:16;;;;;;;;;17.50;15.75;;;;;;;;5080717;28;47115;-85
2021/08/31 05:08:41;;;;;;;;;14.25;11.00;;;;;;;;5080581;28;47858;-86
2021/08/31 05:11:06;;;;;;;;;12.50;11.25;;;;;;;;5062303;28;46990;-84
2021/08/31 05:13:39;;;;;;;;;19.00;15.00;;;;;;;;5080192;28;47075;-86
2021/08/31 05:16:05;;;;;;;;;16.75;14.25;;;;;;;;5079135;28;47205;-84
2021/08/31 05:18:32;;;;;;;;;14.00;13.25;;;;;;;;5057374;28;49342;-84
2021/08/31 05:20:57;;;;;;;;;13.75;13.00;;;;;;;;5060261;28;47226;-83
2021/08/31 05:23:23;;;;;;;;;18.50;15.25;;;;;;;;5060219;28;46781;-83
2021/08/31 05:25:48;;;;;;;;;12.50;12.00;;;;;;;;5052983;28;47256;-83
2021/08/31 05:28:13;;;;;;;;;15.75;14.50;;;;;;;;5053810;28;47677;-83
2021/08/31 05:30:39;;;;;;;;;17.00;14.75;;;;;;;;5059903;28;46965;-83
2021/08/31 05:33:04;;;;;;;;;17.00;15.00;;;;;;;;5058702;28;47015;-83
2021/08/31 05:35:29;;;;;;;;;15.50;13.75;;;;;;;;5060472;28;46969;-83
2021/08/31 05:37:55;;;;;;;;;17.00;15.00;;;;;;;;5059697;28;47018;-84
2021/08/31 05:40:21;;;;;;;;;11.75;9.75;;;;;;;;5060176;28;46954;-84
2021/08/31 05:42:47;;;;;;;;;15.50;13.00;;;;;;;;5059635;28;46922;-84
2021/08/31 05:45:13;;;;;;;;;20.75;17.75;;;;;;;;5059852;28;47030;-84
2021/08/31 05:47:38;;;;;;;;;18.00;17.50;;;;;;;;5059981;28;47065;-84
2021/08/31 05:50:04;;;;;;;;;18.50;17.50;;;;;;;;5059966;28;46840;-83
2021/08/31 05:52:29;;;;;;;;;20.50;15.75;;;;;;;;5059896;28;46914;-84
2021/08/31 05:54:55;;;;;;;;;14.50;13.00;;;;;;;;5060106;28;47094;-84
2021/08/31 05:57:20;;;;;;;;;16.00;14.25;;;;;;;;5054337;28;46919;-84
2021/08/31 05:59:45;;;;;;;;;17.50;16.50;;;;;;;;5059335;28;46768;-84
2021/08/31 06:02:11;;;;;;;;;14.00;12.75;;;;;;;;5059866;28;46897;-84
2021/08/31 06:04:36;;;;;;;;;16.75;15.25;;;;;;;;5059544;28;46838;-84
2021/08/31 06:07:05;;;;;;;;;21.00;20.25;;;;;;;;5059545;28;48146;-84
2021/08/31 06:09:31;;;;;;;;;25.75;17.75;;;;;;;;5059391;28;47002;-84
2021/08/31 06:11:58;;;;;;;;;20.50;16.75;;;;;;;;5059378;28;47105;-84
2021/08/31 06:14:23;;;;;;;;;18.75;17.00;;;;;;;;5059249;28;46856;-84
2021/08/31 06:16:49;;;;;;;;;18.75;15.25;;;;;;;;5059429;28;46994;-84
2021/08/31 06:19:14;;;;;;;;;20.75;17.50;;;;;;;;5057675;28;47129;-84
2021/08/31 06:21:40;;;;;;;;;26.25;22.50;;;;;;;;5059323;28;47104;-84
2021/08/31 06:24:05;;;;;;;;;20.00;15.50;;;;;;;;5059471;28;46716;-84
2021/08/31 06:26:31;;;;;;;;;13.50;13.50;;;;;;;;5048004;28;47158;-84
2021/08/31 06:28:56;;;;;;;;;13.50;12.00;;;;;;;;5057972;28;46968;-84
2021/08/31 06:31:21;;;;;;;;;25.50;21.00;;;;;;;;5059258;28;46816;-84
2021/08/31 06:33:47;;;;;;;;;24.50;20.00;;;;;;;;5056445;28;47129;-84
2021/08/31 06:36:13;;;;;;;;;25.00;21.25;;;;;;;;5059196;28;46938;-84
2021/08/31 06:38:38;;;;;;;;;18.50;16.00;;;;;;;;5058519;28;47093;-84
2021/08/31 06:41:06;;;;;;;;;20.50;19.50;;;;;;;;5057272;28;46855;-83
2021/08/31 06:43:31;;;;;;;;;21.50;19.25;;;;;;;;5058411;28;47132;-83
2021/08/31 06:45:56;;;;;;;;;17.75;16.75;;;;;;;;5058967;28;47869;-83
2021/08/31 06:48:22;;;;;;;;;24.00;18.25;;;;;;;;5058907;28;46955;-83
2021/08/31 06:50:47;;;;;;;;;12.75;11.50;;;;;;;;5057526;28;47008;-83
2021/08/31 06:53:12;;;;;;;;;24.25;20.50;;;;;;;;5057693;28;47394;-84
2021/08/31 06:55:41;;;;;;;;;15.25;13.75;;;;;;;;5059411;28;47753;-83
2021/08/31 06:58:06;;;;;;;;;18.00;16.00;;;;;;;;5058611;28;46898;-83
2021/08/31 07:00:31;;;;;;;;;25.50;22.50;;;;;;;;5056266;28;47065;-84
2021/08/31 07:02:56;;;;;;;;;15.50;13.00;;;;;;;;5066808;28;47031;-84
2021/08/31 07:05:22;;;;;;;;;21.25;18.25;;;;;;;;5060581;27;47807;-86
2021/08/31 07:07:47;;;;;;;;;9.75;7.50;;;;;;;;5062094;28;46755;-82
2021/08/31 07:10:13;;;;;;;;;17.50;16.00;;;;;;;;5058568;28;46984;-82
2021/08/31 07:12:38;;;;;;;;;21.50;19.50;;;;;;;;5057736;28;47062;-82
2021/08/31 07:15:04;;;;;;;;;22.75;21.00;;;;;;;;5058206;28;47688;-82
2021/08/31 07:17:30;;;;;;;;;20.50;16.75;;;;;;;;5063951;28;47278;-80
2021/08/31 07:19:55;;;;;;;;;26.50;24.25;;;;;;;;5070868;28;46966;-80
2021/08/31 07:22:20;;;;;;;;;28.00;22.25;;;;;;;;5080725;28;47153;-82
2021/08/31 07:24:46;;;;;;;;;21.25;20.50;;;;;;;;5078391;28;46971;-81
2021/08/31 07:27:12;;;;;;;;;18.75;17.00;;;;;;;;5078682;28;47014;-81
2021/08/31 07:29:38;;;;;;;;;26.25;22.00;;;;;;;;5078122;28;46802;-82
2021/08/31 07:32:04;;;;;;;;;24.75;20.25;;;;;;;;5078777;28;47046;-81
2021/08/31 07:34:29;;;;;;;;;26.50;20.75;;;;;;;;5075693;28;47505;-81
2021/08/31 07:36:55;;;;;;;;;23.75;21.50;;;;;;;;5076770;28;46927;-81
2021/08/31 07:39:21;;;;;;;;;20.50;16.50;;;;;;;;5077259;27;47120;-82
2021/08/31 07:41:47;;;;;;;;;22.75;17.75;;;;;;;;5066769;28;47166;-82
2021/08/31 07:44:12;;;;;;;;;18.25;17.00;;;;;;;;5077909;28;46829;-82
2021/08/31 07:46:39;;;;;;;;;19.50;17.50;;;;;;;;5077491;28;46925;-81
2021/08/31 07:49:04;;;;;;;;;25.25;21.75;;;;;;;;5077448;28;47010;-81
2021/08/31 07:51:29;;;;;;;;;20.00;18.25;;;;;;;;5078630;28;47208;-82
2021/08/31 07:53:54;;;;;;;;;26.50;22.25;;;;;;;;5077495;28;47763;-82
2021/08/31 07:56:20;;;;;;;;;23.25;20.00;;;;;;;;5078012;28;46830;-81
2021/08/31 07:58:45;;;;;;;;;26.00;22.00;;;;;;;;5077830;28;46921;-81
2021/08/31 08:01:10;;;;;;;;;20.25;18.25;;;;;;;;5064884;28;47164;-81
2021/08/31 08:03:36;;;;;;;;;12.25;10.00;;;;;;;;5078004;28;47026;-81
2021/08/31 08:06:01;;;;;;;;;11.00;9.75;;;;;;;;5088210;27;46970;-78
2021/08/31 08:08:26;;;;;;;;;25.50;21.00;;;;;;;;5070438;27;47148;-85
2021/08/31 08:10:52;;;;;;;;;14.75;12.50;;;;;;;;5078130;27;47088;-77
2021/08/31 08:13:18;;;;;;;;;19.75;15.75;;;;;;;;5059080;28;49217;-76
2021/08/31 08:15:44;;;;;;;;;25.50;23.75;;;;;;;;5078131;28;46877;-76
2021/08/31 08:18:09;;;;;;;;;7.50;6.50;;;;;;;;5078043;28;47388;-77
2021/08/31 08:20:34;;;;;;;;;18.00;17.75;;;;;;;;5078042;28;46832;-81
2021/08/31 08:23:00;;;;;;;;;21.75;18.50;;;;;;;;5077862;28;47860;-77
2021/08/31 08:25:25;;;;;;;;;17.25;14.25;;;;;;;;5076071;28;47257;-78
2021/08/31 08:27:51;;;;;;;;;24.75;21.00;;;;;;;;5071048;28;46974;-78
2021/08/31 08:30:16;;;;;;;;;18.75;15.75;;;;;;;;5078080;28;47301;-78
2021/08/31 08:32:41;;;;;;;;;19.00;15.75;;;;;;;;5076687;28;47843;-78
2021/08/31 08:35:07;;;;;;;;;16.75;13.25;;;;;;;;5077631;28;46912;-78
2021/08/31 08:37:33;;;;;;;;;7.00;4.50;;;;;;;;5077822;28;46895;-78
2021/08/31 08:39:59;;;;;;;;;21.25;19.25;;;;;;;;5078001;28;47184;-79
2021/08/31 08:42:24;;;;;;;;;16.50;16.50;;;;;;;;5077166;28;47141;-78
2021/08/31 08:44:49;;;;;;;;;18.50;15.75;;;;;;;;5059430;28;46938;-81
2021/08/31 08:47:15;;;;;;;;;18.75;17.25;;;;;;;;5077627;28;47008;-80
2021/08/31 08:49:43;;;;;;;;;20.50;16.50;;;;;;;;5077775;28;47047;-81
2021/08/31 08:52:09;;;;;;;;;16.00;15.75;;;;;;;;5077411;28;47101;-81
2021/08/31 08:54:34;;;;;;;;;21.25;18.50;;;;;;;;5077584;28;46781;-81
2021/08/31 08:57:00;;;;;;;;;5.00;5.00;;;;;;;;5068872;28;46892;-80
2021/08/31 08:59:25;;;;;;;;;12.75;12.75;;;;;;;;5072458;28;46699;-80
2021/08/31 09:01:53;;;;;;;;;3.25;3.25;;;;;;;;5080416;28;47047;-80
2021/08/31 09:04:21;;;;;;;;;14.00;12.00;;;;;;;;5080785;28;46907;-80
2021/08/31 09:06:46;;;;;;;;;19.50;14.00;;;;;;;;5062683;28;47062;-80
2021/08/31 09:09:12;;;;;;;;;19.75;16.00;;;;;;;;5080809;28;47008;-80
2021/08/31 09:11:40;;;;;;;;;14.25;13.00;;;;;;;;5080967;28;47726;-79
2021/08/31 09:14:17;;;;;;;;;8.00;7.25;;;;;;;;5062016;28;47066;-80
2021/08/31 09:16:44;;;;;;;;;20.75;18.25;;;;;;;;5080899;28;47015;-80
2021/08/31 09:19:11;;;;;;;;;18.00;16.00;;;;;;;;5062519;28;46897;-80
2021/08/31 09:21:37;;;;;;;;;17.00;14.50;;;;;;;;5080486;28;47934;-79
2021/08/31 09:24:02;;;;;;;;;16.75;14.75;;;;;;;;5080491;28;46944;-79
2021/08/31 09:26:35;;;;;;;;;14.50;12.75;;;;;;;;5069969;28;47080;-80
2021/08/31 09:29:10;;;;;;;;;14.00;11.25;;;;;;;;5061651;28;47113;-79
2021/08/31 09:31:49;;;;;;;;;2.75;2.75;;;;;;;;5080589;28;47972;-79
2021/08/31 09:34:33;;;;;;;;;18.00;16.50;;;;;;;;5079104;28;46774;-80
2021/08/31 09:37:17;;;;;;;;;6.75;5.50;;;;;;;;5080338;28;47190;-79
2021/08/31 09:39:42;;;;;;;;;7.00;7.00;;;;;;;;5080491;28;47310;-79
2021/08/31 09:42:08;;;;;;;;;19.75;18.00;;;;;;;;5061963;28;49526;-80
2021/08/31 09:44:33;;;;;;;;;18.00;16.50;;;;;;;;5079723;28;47000;-80
2021/08/31 09:47:00;;;;;;;;;27.25;21.00;;;;;;;;5080425;28;46896;-80
2021/08/31 09:49:28;;;;;;;;;25.75;20.50;;;;;;;;5062028;28;47097;-80
2021/08/31 09:52:13;;;;;;;;;21.75;18.75;;;;;;;;5061984;28;47170;-80
2021/08/31 09:54:40;;;;;;;;;17.00;14.75;;;;;;;;5080023;28;47256;-79
2021/08/31 09:57:27;;;;;;;;;18.25;14.50;;;;;;;;5070499;28;47022;-79
2021/08/31 09:59:53;;;;;;;;;22.75;20.25;;;;;;;;5079081;28;47229;-79
2021/08/31 10:02:18;;;;;;;;;28.25;22.00;;;;;;;;5079948;28;47039;-80
2021/08/31 10:04:43;;;;;;;;;25.50;21.75;;;;;;;;5079717;28;46988;-80
2021/08/31 10:07:50;;;;;;;;;3.00;3.00;;;;;;;;5079801;28;46963;-87
2021/08/31 10:10:16;;;;;;;;;26.50;23.75;;;;;;;;5071190;28;47039;-85
2021/08/31 10:12:41;;;;;;;;;24.00;20.50;;;;;;;;5078548;28;47873;-80
2021/08/31 10:15:08;;;;;;;;;31.50;24.75;;;;;;;;5079670;28;46781;-80
2021/08/31 10:17:33;;;;;;;;;22.00;20.75;;;;;;;;5079436;28;47232;-80
2021/08/31 10:20:02;;;;;;;;;22.25;21.25;;;;;;;;5079828;28;47208;-80
2021/08/31 10:22:27;;;;;;;;;13.25;11.50;;;;;;;;5079329;28;47886;-80
2021/08/31 10:24:53;;;;;;;;;18.75;16.50;;;;;;;;5079573;28;47032;-80
2021/08/31 10:27:29;;;;;;;;;16.25;15.00;;;;;;;;5066749;28;47046;-80
2021/08/31 10:30:12;;;;;;;;;3.50;3.00;;;;;;;;5079673;28;46786;-80
2021/08/31 10:32:38;;;;;;;;;22.25;17.50;;;;;;;;5078365;28;47851;-81
2021/08/31 10:35:03;;;;;;;;;19.75;17.00;;;;;;;;5079226;28;46920;-81
2021/08/31 10:37:42;;;;;;;;;5.50;4.50;;;;;;;;5079690;28;47017;-81
2021/08/31 10:40:08;;;;;;;;;38.00;30.50;;;;;;;;5079691;28;46797;-81
2021/08/31 10:42:33;;;;;;;;;36.50;30.75;;;;;;;;5060472;28;48231;-81
2021/08/31 10:45:04;;;;;;;;;32.25;28.00;;;;;;;;5079216;28;47030;-81
2021/08/31 10:47:30;;;;;;;;;19.25;16.75;;;;;;;;5079411;28;46851;-80
2021/08/31 10:49:56;;;;;;;;;31.75;25.00;;;;;;;;5079427;28;46824;-84
2021/08/31 10:52:38;;;;;;;;;23.25;21.25;;;;;;;;5079055;28;47696;-80
2021/08/31 10:55:04;;;;;;;;;22.00;19.00;;;;;;;;5066696;28;47042;-80
2021/08/31 10:57:36;;;;;;;;;20.50;18.25;;;;;;;;5047475;28;46829;-81
2021/08/31 11:00:16;;;;;;;;;22.25;15.50;;;;;;;;5066144;28;46881;-80
2021/08/31 11:02:48;;;;;;;;;24.00;17.25;;;;;;;;5060491;28;49458;-81
2021/08/31 11:05:25;;;;;;;;;17.25;14.75;;;;;;;;5078983;28;47228;-80
2021/08/31 11:08:10;;;;;;;;;7.50;7.00;;;;;;;;5078877;28;46888;-79
2021/08/31 11:10:37;;;;;;;;;18.25;17.00;;;;;;;;5078992;28;46986;-80
2021/08/31 11:13:09;;;;;;;;;17.00;15.25;;;;;;;;5078599;28;48081;-80
2021/08/31 11:15:34;;;;;;;;;19.75;14.75;;;;;;;;5078611;28;47262;-80
2021/08/31 11:17:59;;;;;;;;;17.00;15.50;;;;;;;;5078863;28;46785;-79
2021/08/31 11:20:29;;;;;;;;;14.75;13.50;;;;;;;;5078852;28;46799;-80
2021/08/31 11:23:03;;;;;;;;;20.00;17.25;;;;;;;;5078663;28;48205;-80
2021/08/31 11:25:30;;;;;;;;;11.75;9.50;;;;;;;;5075201;28;46727;-80
2021/08/31 11:27:57;;;;;;;;;27.50;21.25;;;;;;;;5068891;28;47112;-80
2021/08/31 11:30:23;;;;;;;;;28.50;28.00;;;;;;;;5078722;28;47192;-80
2021/08/31 11:32:48;;;;;;;;;36.75;30.25;;;;;;;;5059016;28;49354;-81
2021/08/31 11:35:13;;;;;;;;;31.75;30.25;;;;;;;;5078394;28;46852;-80
2021/08/31 11:37:51;;;;;;;;;17.25;17.00;;;;;;;;5060351;28;46930;-80
2021/08/31 11:40:26;;;;;;;;;38.50;32.00;;;;;;;;5078400;28;46766;-80
2021/08/31 11:42:55;;;;;;;;;35.50;31.75;;;;;;;;5077848;28;46859;-81
2021/08/31 11:45:22;;;;;;;;;36.50;32.00;;;;;;;;5078621;28;47293;-81
2021/08/31 11:47:52;;;;;;;;;29.75;25.50;;;;;;;;5060116;28;46907;-81
2021/08/31 11:50:18;;;;;;;;;21.25;17.75;;;;;;;;5078935;28;47817;-81
2021/08/31 11:52:44;;;;;;;;;24.50;21.75;;;;;;;;5078187;28;48130;-80
2021/08/31 11:55:09;;;;;;;;;29.50;25.25;;;;;;;;5059906;28;47133;-80
2021/08/31 11:57:35;;;;;;;;;27.00;23.75;;;;;;;;5064248;28;47034;-81
2021/08/31 12:00:00;;;;;;;;;9.75;7.50;;;;;;;;5078507;28;46924;-80
2021/08/31 12:02:27;;;;;;;;;10.00;10.00;;;;;;;;5078193;28;47145;-80
2021/08/31 12:04:58;;;;;;;;;25.75;22.25;;;;;;;;5064996;28;46901;-80
2021/08/31 12:07:26;;;;;;;;;9.75;7.00;;;;;;;;5078303;28;46890;-81
2021/08/31 12:09:53;;;;;;;;;17.50;15.50;;;;;;;;5078514;28;47336;-81
2021/08/31 12:12:19;;;;;;;;;16.25;14.25;;;;;;;;5077846;28;47008;-81
2021/08/31 12:14:45;;;;;;;;;7.25;5.75;;;;;;;;5078253;28;46966;-80
2021/08/31 12:17:11;;;;;;;;;29.00;26.25;;;;;;;;5078167;28;46730;-80
2021/08/31 12:19:36;;;;;;;;;34.25;29.00;;;;;;;;5078139;28;47355;-80
2021/08/31 12:22:15;;;;;;;;;19.50;19.25;;;;;;;;5077756;28;46889;-80
2021/08/31 12:24:41;;;;;;;;;24.75;19.75;;;;;;;;5078025;28;46990;-80
2021/08/31 12:27:07;;;;;;;;;23.50;20.50;;;;;;;;5047535;28;47001;-81
2021/08/31 12:29:47;;;;;;;;;17.50;15.00;;;;;;;;5078101;28;47360;-81
2021/08/31 12:32:13;;;;;;;;;19.50;17.00;;;;;;;;5077596;28;46793;-81
2021/08/31 12:34:38;;;;;;;;;29.00;26.75;;;;;;;;5075690;28;47024;-80
2021/08/31 12:37:23;;;;;;;;;22.50;18.75;;;;;;;;5081197;28;46824;-81
2021/08/31 12:39:49;;;;;;;;;22.00;21.50;;;;;;;;5081563;28;46932;-80
2021/08/31 12:42:16;;;;;;;;;17.00;15.25;;;;;;;;5080874;28;46990;-81
2021/08/31 12:44:48;;;;;;;;;6.25;5.25;;;;;;;;5081330;28;47408;-81
2021/08/31 12:47:16;;;;;;;;;17.00;15.75;;;;;;;;5081433;28;46895;-79
2021/08/31 12:49:41;;;;;;;;;15.50;15.50;;;;;;;;5081364;28;47254;-79
2021/08/31 12:52:16;;;;;;;;;14.00;12.25;;;;;;;;5081201;28;48143;-79
2021/08/31 12:54:41;;;;;;;;;8.75;7.00;;;;;;;;5081012;28;47135;-80
2021/08/31 12:57:08;;;;;;;;;12.25;12.25;;;;;;;;5071107;28;46903;-80
2021/08/31 12:59:33;;;;;;;;;14.00;10.25;;;;;;;;5059444;28;47070;-79
2021/08/31 13:01:59;;;;;;;;;10.00;7.00;;;;;;;;5081030;28;47856;-79
2021/08/31 13:04:24;;;;;;;;;6.00;4.50;;;;;;;;5081117;28;46900;-79
2021/08/31 13:07:01;;;;;;;;;22.25;19.25;;;;;;;;5081107;28;46747;-84
2021/08/31 13:09:27;;;;;;;;;16.00;10.00;;;;;;;;5076982;28;47297;-79
2021/08/31 13:11:53;;;;;;;;;13.00;13.00;;;;;;;;5080081;28;47243;-81
2021/08/31 13:14:19;;;;;;;;;11.75;10.75;;;;;;;;5079326;28;46726;-80
2021/08/31 13:16:46;;;;;;;;;17.25;15.75;;;;;;;;5080239;28;47055;-80
2021/08/31 13:19:12;;;;;;;;;10.75;10.00;;;;;;;;5080852;28;46998;-80
2021/08/31 13:21:37;;;;;;;;;16.00;14.25;;;;;;;;5078700;28;47513;-81
2021/08/31 13:24:03;;;;;;;;;21.50;16.25;;;;;;;;5080020;28;46899;-80
2021/08/31 13:26:29;;;;;;;;;8.00;8.00;;;;;;;;5070178;28;47064;-78
2021/08/31 13:28:55;;;;;;;;;5.50;3.00;;;;;;;;5080718;27;47048;-78
2021/08/31 13:31:20;;;;;;;;;10.50;10.50;;;;;;;;5076504;28;48115;-78
2021/08/31 13:33:47;;;;;;;;;7.75;5.75;;;;;;;;5060969;28;46941;-80
2021/08/31 13:36:12;;;;;;;;;28.25;22.75;;;;;;;;5079626;28;47076;-80
2021/08/31 13:38:37;;;;;;;;;20.75;18.00;;;;;;;;5082605;27;46805;-80
2021/08/31 13:41:03;;;;;;;;;15.75;10.75;;;;;;;;5080294;28;46910;-80
2021/08/31 13:43:28;;;;;;;;;15.50;15.25;;;;;;;;5079752;28;47025;-80
2021/08/31 13:45:54;;;;;;;;;14.00;13.75;;;;;;;;5078381;28;47003;-80
2021/08/31 13:48:19;;;;;;;;;10.25;9.25;;;;;;;;5079507;28;47017;-81
2021/08/31 13:50:45;;;;;;;;;9.00;8.00;;;;;;;;5060668;28;48207;-80
2021/08/31 13:53:10;;;;;;;;;9.00;8.00;;;;;;;;5080247;28;46911;-80
2021/08/31 13:55:35;;;;;;;;;6.50;5.00;;;;;;;;5080240;28;47640;-79
2021/08/31 13:58:01;;;;;;;;;14.00;10.25;;;;;;;;5079817;28;47105;-80
2021/08/31 14:00:26;;;;;;;;;18.50;18.00;;;;;;;;5077946;28;47124;-80
2021/08/31 14:02:52;;;;;;;;;23.25;18.00;;;;;;;;5079617;28;47094;-81
2021/08/31 14:05:17;;;;;;;;;14.25;13.00;;;;;;;;5079595;28;47096;-78
2021/08/31 14:07:42;;;;;;;;;13.50;11.25;;;;;;;;5080096;28;46952;-78
2021/08/31 14:10:08;;;;;;;;;17.25;15.00;;;;;;;;5078511;28;47441;-78
2021/08/31 14:12:33;;;;;;;;;16.50;14.75;;;;;;;;5060359;28;47103;-77
2021/08/31 14:14:59;;;;;;;;;5.75;4.25;;;;;;;;5078229;28;46950;-78
2021/08/31 14:17:24;;;;;;;;;10.50;9.25;;;;;;;;5079562;28;47372;-81
2021/08/31 14:19:49;;;;;;;;;16.00;12.50;;;;;;;;5079522;28;48016;-81